Latest  Newer  Older  Last 2 hours slideshow  Last 24 hours slideshow  Refresh every 5 minutes 
Current image  Latest image  Rain/snow radar  Cloud coverage sat images 

All time is UTC (add 2 hours to UTC in wintertime, 3 hours to UTC in DST for Latvia local time)

2019/06/15 22:20 EVRA 152220Z 01002KT CAVOK 12/10 Q1017 NOSIG
2019/06/15 22:20 EVLA 152220Z 07005KT 9999 NSC 17/13 Q1014
2019/06/15 22:20 EVVA 152220Z AUTO 07006KT CAVOK 17/13 Q1016
2019/06/15 22:20 EYKA 152220Z AUTO 09007KT 9999 NCD 17/11 Q1016
2019/06/15 22:20 EYPA 152220Z AUTO 10008KT 9999 SCT190/// 19/12 Q1014
2019/06/15 22:20 EYSA 152220Z AUTO 08005KT 050V110 9999NDV NSC 17/11 Q1017
2019/06/15 22:20 EYVI 152220Z 10004KT CAVOK 17/11 Q1017 NOSIG
2019/06/15 07:50 EEKA 150750Z 30007KT CAVOK 20/13 Q1018
2019/06/15 21:50 EEKE 152150Z AUTO 00000KT 9999NDV NCD 12/11 Q1017
2019/06/15 12:50 EEPU 151250Z 21010KT CAVOK 21/16 Q1018
2019/06/15 22:20 EETN 152220Z 23003KT CAVOK 13/11 Q1016
2019/06/15 21:50 EETU 152150Z AUTO 27005KT 9999 NCD 14/12 Q1016
   RIGA AIRPORT     EVRA               56 55N  023 58E   10   X     T          6 LV
   LIEPAJA INTL     EVLA        26406  56 31N  021 06E    4   X                8 LV
   VENTPILS         EVVA               57 21N  021 33E    6   X                8 LV
   KAUNAS           EYKA               54 54N  023 55E   77   X     T          6 LT
   PALANGA INTL     EYPA               55 55N  021 03E   10   X                6 LT
   SIAULIAI INTL    EYSA               55 54N  023 24E  135   X     T          6 LT
   VILNIUS INTL     EYVI        26730  54 38N  025 17E  197   X     T          6 LT
   KARDLA           EEKA        26116  58 59N  022 50E    4   X                8 EE
   KURESSAARE       EEKE               58 14N  022 31E    4   X                8 EE
   PARNU            EEPU               58 25N  024 28E   14   X                8 EE
   TALLINN          EETN        26038  59 24N  024 49E   40   X     T          8 EE
   TARTU            EETU               58 19N  026 41E   67   X                8 EE